sensor_id;sensor_type;location;lat;lon;timestamp;P1;durP1;ratioP1;P2;durP2;ratioP2
19830;SDS011;10076;52.008;4.708;2022-08-11T00:03:03;3.53;;;2.60;;
19830;SDS011;10076;52.008;4.708;2022-08-11T00:05:27;3.03;;;2.47;;
19830;SDS011;10076;52.008;4.708;2022-08-11T00:07:53;3.65;;;2.22;;
19830;SDS011;10076;52.008;4.708;2022-08-11T00:10:22;3.08;;;2.13;;
19830;SDS011;10076;52.008;4.708;2022-08-11T00:12:54;5.00;;;2.10;;
19830;SDS011;10076;52.008;4.708;2022-08-11T00:15:26;4.75;;;2.40;;
19830;SDS011;10076;52.008;4.708;2022-08-11T00:18:04;3.35;;;2.25;;
19830;SDS011;10076;52.008;4.708;2022-08-11T00:20:31;3.83;;;2.40;;
19830;SDS011;10076;52.008;4.708;2022-08-11T00:23:04;2.38;;;2.03;;
19830;SDS011;10076;52.008;4.708;2022-08-11T00:25:36;4.13;;;2.22;;
19830;SDS011;10076;52.008;4.708;2022-08-11T00:28:25;3.13;;;2.10;;
19830;SDS011;10076;52.008;4.708;2022-08-11T00:30:52;3.03;;;2.10;;
19830;SDS011;10076;52.008;4.708;2022-08-11T00:33:19;3.50;;;2.05;;
19830;SDS011;10076;52.008;4.708;2022-08-11T00:35:48;3.65;;;2.40;;
19830;SDS011;10076;52.008;4.708;2022-08-11T00:38:16;3.30;;;2.40;;
19830;SDS011;10076;52.008;4.708;2022-08-11T00:40:51;3.22;;;2.60;;
19830;SDS011;10076;52.008;4.708;2022-08-11T00:48:37;2.60;;;2.30;;
19830;SDS011;10076;52.008;4.708;2022-08-11T00:51:19;2.22;;;1.98;;
19830;SDS011;10076;52.008;4.708;2022-08-11T00:57:07;6.25;;;2.83;;
19830;SDS011;10076;52.008;4.708;2022-08-11T01:05:14;3.35;;;2.47;;
19830;SDS011;10076;52.008;4.708;2022-08-11T01:20:58;3.25;;;2.67;;
19830;SDS011;10076;52.008;4.708;2022-08-11T01:35:32;4.13;;;2.42;;
19830;SDS011;10076;52.008;4.708;2022-08-11T01:47:37;3.70;;;2.60;;
19830;SDS011;10076;52.008;4.708;2022-08-11T01:53:03;3.15;;;2.28;;
19830;SDS011;10076;52.008;4.708;2022-08-11T01:55:46;3.45;;;2.53;;
19830;SDS011;10076;52.008;4.708;2022-08-11T01:58:19;5.43;;;2.70;;
19830;SDS011;10076;52.008;4.708;2022-08-11T02:01:00;3.08;;;2.38;;
19830;SDS011;10076;52.008;4.708;2022-08-11T02:04:01;3.50;;;2.15;;
19830;SDS011;10076;52.008;4.708;2022-08-11T02:06:45;2.95;;;2.25;;
19830;SDS011;10076;52.008;4.708;2022-08-11T02:09:31;2.25;;;2.00;;
19830;SDS011;10076;52.008;4.708;2022-08-11T02:12:01;3.13;;;2.30;;
19830;SDS011;10076;52.008;4.708;2022-08-11T02:14:38;2.88;;;2.40;;
19830;SDS011;10076;52.008;4.708;2022-08-11T02:17:18;3.95;;;2.72;;
19830;SDS011;10076;52.008;4.708;2022-08-11T02:20:01;2.90;;;2.10;;
19830;SDS011;10076;52.008;4.708;2022-08-11T02:28:52;7.32;;;2.65;;
19830;SDS011;10076;52.008;4.708;2022-08-11T02:31:38;5.38;;;2.40;;
19830;SDS011;10076;52.008;4.708;2022-08-11T02:34:36;4.85;;;2.28;;
19830;SDS011;10076;52.008;4.708;2022-08-11T02:40:15;2.83;;;2.20;;
19830;SDS011;10076;52.008;4.708;2022-08-11T02:47:45;3.13;;;2.30;;
19830;SDS011;10076;52.008;4.708;2022-08-11T02:51:07;4.25;;;2.33;;
19830;SDS011;10076;52.008;4.708;2022-08-11T02:53:41;3.05;;;2.30;;
19830;SDS011;10076;52.008;4.708;2022-08-11T02:56:26;4.15;;;2.35;;
19830;SDS011;10076;52.008;4.708;2022-08-11T03:02:19;3.00;;;2.33;;
19830;SDS011;10076;52.008;4.708;2022-08-11T03:15:47;4.30;;;2.92;;
19830;SDS011;10076;52.008;4.708;2022-08-11T03:18:49;4.03;;;2.80;;
19830;SDS011;10076;52.008;4.708;2022-08-11T03:21:34;2.88;;;2.38;;
19830;SDS011;10076;52.008;4.708;2022-08-11T03:27:38;5.95;;;2.90;;
19830;SDS011;10076;52.008;4.708;2022-08-11T03:44:58;4.47;;;2.95;;
19830;SDS011;10076;52.008;4.708;2022-08-11T03:50:47;5.35;;;3.20;;
19830;SDS011;10076;52.008;4.708;2022-08-11T04:04:57;3.53;;;2.40;;
19830;SDS011;10076;52.008;4.708;2022-08-11T04:16:14;3.78;;;2.85;;
19830;SDS011;10076;52.008;4.708;2022-08-11T04:19:18;4.40;;;2.60;;
19830;SDS011;10076;52.008;4.708;2022-08-11T04:24:57;3.05;;;2.53;;
19830;SDS011;10076;52.008;4.708;2022-08-11T04:30:10;4.85;;;2.72;;
19830;SDS011;10076;52.008;4.708;2022-08-11T04:49:37;5.18;;;2.80;;
19830;SDS011;10076;52.008;4.708;2022-08-11T04:52:54;3.53;;;2.35;;
19830;SDS011;10076;52.008;4.708;2022-08-11T04:56:08;4.70;;;2.50;;
19830;SDS011;10076;52.008;4.708;2022-08-11T05:14:01;2.90;;;2.45;;
19830;SDS011;10076;52.008;4.708;2022-08-11T05:16:53;4.57;;;3.00;;
19830;SDS011;10076;52.008;4.708;2022-08-11T05:19:45;3.38;;;2.78;;
19830;SDS011;10076;52.008;4.708;2022-08-11T05:22:30;4.32;;;2.70;;
19830;SDS011;10076;52.008;4.708;2022-08-11T05:25:19;3.08;;;2.63;;
19830;SDS011;10076;52.008;4.708;2022-08-11T05:28:10;5.20;;;3.22;;
19830;SDS011;10076;52.008;4.708;2022-08-11T05:30:56;3.10;;;2.70;;
19830;SDS011;10076;52.008;4.708;2022-08-11T05:33:55;4.70;;;2.80;;
19830;SDS011;10076;52.008;4.708;2022-08-11T05:36:51;4.88;;;2.80;;
19830;SDS011;10076;52.008;4.708;2022-08-11T05:39:22;3.55;;;2.83;;
19830;SDS011;10076;52.008;4.708;2022-08-11T05:42:10;4.90;;;2.70;;
19830;SDS011;10076;52.008;4.708;2022-08-11T05:44:58;5.22;;;2.72;;
19830;SDS011;10076;52.008;4.708;2022-08-11T05:47:54;4.43;;;2.67;;
19830;SDS011;10076;52.008;4.708;2022-08-11T05:50:40;4.30;;;2.78;;
19830;SDS011;10076;52.008;4.708;2022-08-11T05:53:32;5.88;;;3.03;;
19830;SDS011;10076;52.008;4.708;2022-08-11T05:56:16;4.30;;;2.92;;
19830;SDS011;10076;52.008;4.708;2022-08-11T05:58:46;3.65;;;2.65;;
19830;SDS011;10076;52.008;4.708;2022-08-11T06:01:30;3.97;;;3.00;;
19830;SDS011;10076;52.008;4.708;2022-08-11T06:03:57;3.75;;;2.85;;
19830;SDS011;10076;52.008;4.708;2022-08-11T06:06:39;5.20;;;2.78;;
19830;SDS011;10076;52.008;4.708;2022-08-11T06:09:15;3.88;;;2.75;;
19830;SDS011;10076;52.008;4.708;2022-08-11T06:11:46;4.47;;;3.50;;
19830;SDS011;10076;52.008;4.708;2022-08-11T06:14:12;5.65;;;3.28;;
19830;SDS011;10076;52.008;4.708;2022-08-11T06:16:40;3.38;;;2.58;;
19830;SDS011;10076;52.008;4.708;2022-08-11T06:19:06;3.70;;;2.50;;
19830;SDS011;10076;52.008;4.708;2022-08-11T06:21:33;3.45;;;2.50;;
19830;SDS011;10076;52.008;4.708;2022-08-11T06:24:02;4.32;;;3.05;;
19830;SDS011;10076;52.008;4.708;2022-08-11T06:26:29;4.82;;;2.72;;
19830;SDS011;10076;52.008;4.708;2022-08-11T06:28:55;4.05;;;3.00;;
19830;SDS011;10076;52.008;4.708;2022-08-11T06:31:23;4.05;;;2.95;;
19830;SDS011;10076;52.008;4.708;2022-08-11T06:36:15;5.40;;;3.22;;
19830;SDS011;10076;52.008;4.708;2022-08-11T06:39:08;6.03;;;2.92;;
19830;SDS011;10076;52.008;4.708;2022-08-11T06:46:41;4.93;;;2.65;;
19830;SDS011;10076;52.008;4.708;2022-08-11T06:49:11;3.25;;;2.70;;
19830;SDS011;10076;52.008;4.708;2022-08-11T06:51:59;3.90;;;2.75;;
19830;SDS011;10076;52.008;4.708;2022-08-11T06:54:29;3.30;;;2.70;;
19830;SDS011;10076;52.008;4.708;2022-08-11T06:56:58;3.60;;;2.80;;
19830;SDS011;10076;52.008;4.708;2022-08-11T06:59:43;4.18;;;2.67;;
19830;SDS011;10076;52.008;4.708;2022-08-11T07:05:39;3.55;;;2.88;;
19830;SDS011;10076;52.008;4.708;2022-08-11T07:14:24;4.03;;;2.35;;
19830;SDS011;10076;52.008;4.708;2022-08-11T07:17:10;4.38;;;2.90;;
19830;SDS011;10076;52.008;4.708;2022-08-11T07:19:39;4.07;;;2.75;;
19830;SDS011;10076;52.008;4.708;2022-08-11T07:22:30;3.55;;;3.10;;
19830;SDS011;10076;52.008;4.708;2022-08-11T07:25:35;2.88;;;2.53;;
19830;SDS011;10076;52.008;4.708;2022-08-11T07:28:26;4.78;;;3.08;;
19830;SDS011;10076;52.008;4.708;2022-08-11T07:31:23;4.25;;;2.78;;
19830;SDS011;10076;52.008;4.708;2022-08-11T07:33:51;4.35;;;2.90;;
19830;SDS011;10076;52.008;4.708;2022-08-11T07:36:21;4.25;;;2.83;;
19830;SDS011;10076;52.008;4.708;2022-08-11T07:38:50;2.75;;;2.25;;
19830;SDS011;10076;52.008;4.708;2022-08-11T07:41:21;2.92;;;2.42;;
19830;SDS011;10076;52.008;4.708;2022-08-11T07:43:50;5.35;;;2.50;;
19830;SDS011;10076;52.008;4.708;2022-08-11T07:46:18;3.28;;;2.80;;
19830;SDS011;10076;52.008;4.708;2022-08-11T07:49:04;2.65;;;2.22;;
19830;SDS011;10076;52.008;4.708;2022-08-11T07:51:52;3.92;;;2.00;;
19830;SDS011;10076;52.008;4.708;2022-08-11T07:54:37;2.30;;;2.00;;
19830;SDS011;10076;52.008;4.708;2022-08-11T07:57:04;3.55;;;2.55;;
19830;SDS011;10076;52.008;4.708;2022-08-11T07:59:51;4.03;;;2.40;;
19830;SDS011;10076;52.008;4.708;2022-08-11T08:02:36;3.97;;;2.83;;
19830;SDS011;10076;52.008;4.708;2022-08-11T08:05:22;4.88;;;2.45;;
19830;SDS011;10076;52.008;4.708;2022-08-11T08:08:06;5.43;;;2.67;;
19830;SDS011;10076;52.008;4.708;2022-08-11T08:10:52;4.03;;;2.40;;
19830;SDS011;10076;52.008;4.708;2022-08-11T08:13:39;2.60;;;2.35;;
19830;SDS011;10076;52.008;4.708;2022-08-11T08:16:24;2.53;;;2.30;;
19830;SDS011;10076;52.008;4.708;2022-08-11T08:19:10;3.20;;;2.45;;
19830;SDS011;10076;52.008;4.708;2022-08-11T08:21:38;2.60;;;2.40;;
19830;SDS011;10076;52.008;4.708;2022-08-11T08:24:05;3.00;;;2.38;;
19830;SDS011;10076;52.008;4.708;2022-08-11T08:26:31;3.15;;;2.20;;
19830;SDS011;10076;52.008;4.708;2022-08-11T08:29:16;2.75;;;2.28;;
19830;SDS011;10076;52.008;4.708;2022-08-11T08:32:00;2.90;;;2.45;;
19830;SDS011;10076;52.008;4.708;2022-08-11T08:34:26;4.95;;;2.10;;
19830;SDS011;10076;52.008;4.708;2022-08-11T08:36:52;2.88;;;2.17;;
19830;SDS011;10076;52.008;4.708;2022-08-11T08:39:19;4.18;;;2.03;;
19830;SDS011;10076;52.008;4.708;2022-08-11T08:41:45;2.97;;;2.08;;
19830;SDS011;10076;52.008;4.708;2022-08-11T08:44:16;2.78;;;2.20;;
19830;SDS011;10076;52.008;4.708;2022-08-11T08:46:47;2.20;;;2.00;;
19830;SDS011;10076;52.008;4.708;2022-08-11T08:49:17;2.95;;;2.40;;
19830;SDS011;10076;52.008;4.708;2022-08-11T08:51:48;3.05;;;1.90;;
19830;SDS011;10076;52.008;4.708;2022-08-11T08:54:22;6.40;;;2.50;;
19830;SDS011;10076;52.008;4.708;2022-08-11T08:56:52;2.38;;;2.13;;
19830;SDS011;10076;52.008;4.708;2022-08-11T08:59:21;3.67;;;2.60;;
19830;SDS011;10076;52.008;4.708;2022-08-11T09:01:50;3.65;;;2.20;;
19830;SDS011;10076;52.008;4.708;2022-08-11T09:04:21;3.28;;;2.10;;
19830;SDS011;10076;52.008;4.708;2022-08-11T09:06:48;2.97;;;1.83;;
19830;SDS011;10076;52.008;4.708;2022-08-11T09:09:14;2.22;;;2.03;;
19830;SDS011;10076;52.008;4.708;2022-08-11T09:11:41;3.38;;;2.58;;
19830;SDS011;10076;52.008;4.708;2022-08-11T09:14:14;3.30;;;2.05;;
19830;SDS011;10076;52.008;4.708;2022-08-11T09:16:40;2.45;;;2.08;;
19830;SDS011;10076;52.008;4.708;2022-08-11T09:19:08;2.95;;;2.28;;
19830;SDS011;10076;52.008;4.708;2022-08-11T09:21:33;3.25;;;2.42;;
19830;SDS011;10076;52.008;4.708;2022-08-11T09:24:02;5.50;;;2.35;;
19830;SDS011;10076;52.008;4.708;2022-08-11T09:26:47;2.72;;;2.30;;
19830;SDS011;10076;52.008;4.708;2022-08-11T09:29:25;2.00;;;1.90;;
19830;SDS011;10076;52.008;4.708;2022-08-11T09:31:52;3.47;;;2.13;;
19830;SDS011;10076;52.008;4.708;2022-08-11T09:34:18;2.20;;;2.00;;
19830;SDS011;10076;52.008;4.708;2022-08-11T09:36:44;2.78;;;2.47;;
19830;SDS011;10076;52.008;4.708;2022-08-11T09:39:29;2.28;;;2.08;;
19830;SDS011;10076;52.008;4.708;2022-08-11T09:42:14;3.53;;;2.08;;
19830;SDS011;10076;52.008;4.708;2022-08-11T09:44:40;3.05;;;2.35;;
19830;SDS011;10076;52.008;4.708;2022-08-11T09:47:14;3.17;;;2.25;;
19830;SDS011;10076;52.008;4.708;2022-08-11T09:49:44;3.55;;;2.40;;
19830;SDS011;10076;52.008;4.708;2022-08-11T09:52:11;2.97;;;2.10;;
19830;SDS011;10076;52.008;4.708;2022-08-11T09:54:39;4.30;;;2.50;;
19830;SDS011;10076;52.008;4.708;2022-08-11T09:57:08;3.45;;;2.40;;
19830;SDS011;10076;52.008;4.708;2022-08-11T09:59:52;2.30;;;2.10;;
19830;SDS011;10076;52.008;4.708;2022-08-11T10:02:22;2.60;;;2.40;;
19830;SDS011;10076;52.008;4.708;2022-08-11T10:04:51;3.42;;;2.40;;
19830;SDS011;10076;52.008;4.708;2022-08-11T10:07:39;2.22;;;2.03;;
19830;SDS011;10076;52.008;4.708;2022-08-11T10:10:06;2.42;;;2.22;;
19830;SDS011;10076;52.008;4.708;2022-08-11T10:12:35;2.30;;;2.10;;
19830;SDS011;10076;52.008;4.708;2022-08-11T10:15:09;2.40;;;2.20;;
19830;SDS011;10076;52.008;4.708;2022-08-11T10:17:59;2.25;;;2.00;;
19830;SDS011;10076;52.008;4.708;2022-08-11T10:20:47;3.17;;;2.30;;
19830;SDS011;10076;52.008;4.708;2022-08-11T10:23:15;5.85;;;2.20;;
19830;SDS011;10076;52.008;4.708;2022-08-11T10:26:00;2.20;;;2.00;;
19830;SDS011;10076;52.008;4.708;2022-08-11T10:28:45;2.30;;;2.10;;
19830;SDS011;10076;52.008;4.708;2022-08-11T10:31:11;2.60;;;2.40;;
19830;SDS011;10076;52.008;4.708;2022-08-11T10:33:56;3.40;;;2.10;;
19830;SDS011;10076;52.008;4.708;2022-08-11T10:36:29;2.15;;;1.95;;
19830;SDS011;10076;52.008;4.708;2022-08-11T10:38:57;3.25;;;2.25;;
19830;SDS011;10076;52.008;4.708;2022-08-11T10:41:24;2.42;;;2.22;;
19830;SDS011;10076;52.008;4.708;2022-08-11T10:44:10;2.45;;;2.25;;
19830;SDS011;10076;52.008;4.708;2022-08-11T10:46:37;2.45;;;2.25;;
19830;SDS011;10076;52.008;4.708;2022-08-11T10:49:21;2.97;;;2.15;;
19830;SDS011;10076;52.008;4.708;2022-08-11T10:51:47;2.20;;;2.00;;
19830;SDS011;10076;52.008;4.708;2022-08-11T10:54:32;2.20;;;2.00;;
19830;SDS011;10076;52.008;4.708;2022-08-11T10:57:18;3.00;;;2.20;;
19830;SDS011;10076;52.008;4.708;2022-08-11T11:00:03;2.13;;;2.00;;
19830;SDS011;10076;52.008;4.708;2022-08-11T11:02:31;2.15;;;1.95;;
19830;SDS011;10076;52.008;4.708;2022-08-11T11:07:55;2.30;;;2.10;;
19830;SDS011;10076;52.008;4.708;2022-08-11T11:10:28;2.05;;;1.85;;
19830;SDS011;10076;52.008;4.708;2022-08-11T11:12:55;2.33;;;1.90;;
19830;SDS011;10076;52.008;4.708;2022-08-11T11:15:43;1.50;;;1.40;;
19830;SDS011;10076;52.008;4.708;2022-08-11T11:18:32;1.77;;;1.67;;
19830;SDS011;10076;52.008;4.708;2022-08-11T11:21:10;1.90;;;1.77;;
19830;SDS011;10076;52.008;4.708;2022-08-11T11:23:40;1.95;;;1.85;;
19830;SDS011;10076;52.008;4.708;2022-08-11T11:35:03;1.60;;;1.50;;
19830;SDS011;10076;52.008;4.708;2022-08-11T11:37:38;1.67;;;1.58;;
19830;SDS011;10076;52.008;4.708;2022-08-11T11:40:11;1.88;;;1.60;;
19830;SDS011;10076;52.008;4.708;2022-08-11T11:42:39;1.80;;;1.70;;
19830;SDS011;10076;52.008;4.708;2022-08-11T11:45:07;1.70;;;1.52;;
19830;SDS011;10076;52.008;4.708;2022-08-11T11:47:34;1.65;;;1.48;;
19830;SDS011;10076;52.008;4.708;2022-08-11T11:50:01;2.17;;;1.63;;
19830;SDS011;10076;52.008;4.708;2022-08-11T11:52:28;1.50;;;1.40;;
19830;SDS011;10076;52.008;4.708;2022-08-11T11:54:54;2.35;;;1.77;;
19830;SDS011;10076;52.008;4.708;2022-08-11T11:57:20;2.15;;;1.83;;
19830;SDS011;10076;52.008;4.708;2022-08-11T12:00:06;1.48;;;1.38;;
19830;SDS011;10076;52.008;4.708;2022-08-11T12:02:52;2.00;;;1.70;;
19830;SDS011;10076;52.008;4.708;2022-08-11T12:05:20;3.78;;;2.00;;
19830;SDS011;10076;52.008;4.708;2022-08-11T12:07:46;2.80;;;1.85;;
19830;SDS011;10076;52.008;4.708;2022-08-11T12:10:30;3.08;;;1.83;;
19830;SDS011;10076;52.008;4.708;2022-08-11T12:12:58;1.70;;;1.60;;
19830;SDS011;10076;52.008;4.708;2022-08-11T12:15:44;1.70;;;1.60;;
19830;SDS011;10076;52.008;4.708;2022-08-11T12:18:11;2.95;;;1.85;;
19830;SDS011;10076;52.008;4.708;2022-08-11T12:20:37;1.80;;;1.70;;
19830;SDS011;10076;52.008;4.708;2022-08-11T12:23:03;1.60;;;1.50;;
19830;SDS011;10076;52.008;4.708;2022-08-11T12:25:47;1.40;;;1.30;;
19830;SDS011;10076;52.008;4.708;2022-08-11T12:28:39;1.55;;;1.45;;
19830;SDS011;10076;52.008;4.708;2022-08-11T12:31:05;2.55;;;1.60;;
19830;SDS011;10076;52.008;4.708;2022-08-11T12:33:34;1.50;;;1.40;;
19830;SDS011;10076;52.008;4.708;2022-08-11T12:36:00;1.83;;;1.25;;
19830;SDS011;10076;52.008;4.708;2022-08-11T12:38:25;1.58;;;1.48;;
19830;SDS011;10076;52.008;4.708;2022-08-11T12:40:51;1.95;;;1.42;;
19830;SDS011;10076;52.008;4.708;2022-08-11T12:43:37;1.50;;;1.40;;
19830;SDS011;10076;52.008;4.708;2022-08-11T12:46:28;2.25;;;1.50;;
19830;SDS011;10076;52.008;4.708;2022-08-11T12:48:57;1.50;;;1.40;;
19830;SDS011;10076;52.008;4.708;2022-08-11T12:51:48;1.50;;;1.40;;
19830;SDS011;10076;52.008;4.708;2022-08-11T12:54:31;1.60;;;1.50;;
19830;SDS011;10076;52.008;4.708;2022-08-11T12:57:14;1.90;;;1.58;;
19830;SDS011;10076;52.008;4.708;2022-08-11T13:00:02;1.45;;;1.35;;
19830;SDS011;10076;52.008;4.708;2022-08-11T13:02:47;1.90;;;1.67;;
19830;SDS011;10076;52.008;4.708;2022-08-11T13:05:31;1.73;;;1.63;;
19830;SDS011;10076;52.008;4.708;2022-08-11T13:07:59;2.05;;;1.75;;
19830;SDS011;10076;52.008;4.708;2022-08-11T13:10:25;1.90;;;1.70;;
19830;SDS011;10076;52.008;4.708;2022-08-11T13:13:11;1.90;;;1.80;;
19830;SDS011;10076;52.008;4.708;2022-08-11T13:15:38;2.15;;;1.80;;
19830;SDS011;10076;52.008;4.708;2022-08-11T13:18:04;1.90;;;1.67;;
19830;SDS011;10076;52.008;4.708;2022-08-11T13:20:33;2.03;;;1.85;;
19830;SDS011;10076;52.008;4.708;2022-08-11T13:22:59;1.90;;;1.80;;
19830;SDS011;10076;52.008;4.708;2022-08-11T13:25:26;2.05;;;1.85;;
19830;SDS011;10076;52.008;4.708;2022-08-11T13:27:56;1.77;;;1.67;;
19830;SDS011;10076;52.008;4.708;2022-08-11T13:30:24;2.10;;;1.90;;
19830;SDS011;10076;52.008;4.708;2022-08-11T13:33:09;1.98;;;1.75;;
19830;SDS011;10076;52.008;4.708;2022-08-11T13:35:35;2.10;;;1.90;;
19830;SDS011;10076;52.008;4.708;2022-08-11T13:38:02;2.00;;;1.80;;
19830;SDS011;10076;52.008;4.708;2022-08-11T13:40:29;2.10;;;1.90;;
19830;SDS011;10076;52.008;4.708;2022-08-11T13:42:56;2.22;;;1.80;;
19830;SDS011;10076;52.008;4.708;2022-08-11T13:45:23;1.98;;;1.80;;
19830;SDS011;10076;52.008;4.708;2022-08-11T13:47:50;2.03;;;1.83;;
19830;SDS011;10076;52.008;4.708;2022-08-11T13:50:17;1.80;;;1.70;;
19830;SDS011;10076;52.008;4.708;2022-08-11T13:52:43;2.20;;;2.00;;
19830;SDS011;10076;52.008;4.708;2022-08-11T13:55:10;2.20;;;2.00;;
19830;SDS011;10076;52.008;4.708;2022-08-11T13:57:46;2.40;;;2.20;;
19830;SDS011;10076;52.008;4.708;2022-08-11T14:00:21;2.25;;;2.05;;
19830;SDS011;10076;52.008;4.708;2022-08-11T14:02:47;2.92;;;2.15;;
19830;SDS011;10076;52.008;4.708;2022-08-11T14:05:16;2.50;;;2.30;;
19830;SDS011;10076;52.008;4.708;2022-08-11T14:07:46;3.38;;;2.10;;
19830;SDS011;10076;52.008;4.708;2022-08-11T14:10:18;2.17;;;1.98;;
19830;SDS011;10076;52.008;4.708;2022-08-11T14:12:47;2.22;;;2.03;;
19830;SDS011;10076;52.008;4.708;2022-08-11T14:15:38;2.25;;;1.95;;
19830;SDS011;10076;52.008;4.708;2022-08-11T14:18:08;2.67;;;2.47;;
19830;SDS011;10076;52.008;4.708;2022-08-11T14:20:47;2.33;;;2.13;;
19830;SDS011;10076;52.008;4.708;2022-08-11T14:23:37;2.40;;;2.20;;
19830;SDS011;10076;52.008;4.708;2022-08-11T14:26:05;3.08;;;2.28;;
19830;SDS011;10076;52.008;4.708;2022-08-11T14:28:52;2.22;;;2.03;;
19830;SDS011;10076;52.008;4.708;2022-08-11T14:31:18;2.20;;;2.00;;
19830;SDS011;10076;52.008;4.708;2022-08-11T14:33:46;2.40;;;2.10;;
19830;SDS011;10076;52.008;4.708;2022-08-11T14:36:12;4.05;;;2.50;;
19830;SDS011;10076;52.008;4.708;2022-08-11T14:38:38;2.20;;;2.00;;
19830;SDS011;10076;52.008;4.708;2022-08-11T14:41:05;4.38;;;2.00;;
19830;SDS011;10076;52.008;4.708;2022-08-11T14:43:51;4.20;;;2.20;;
19830;SDS011;10076;52.008;4.708;2022-08-11T14:46:37;2.63;;;1.92;;
19830;SDS011;10076;52.008;4.708;2022-08-11T14:49:22;2.55;;;2.35;;
19830;SDS011;10076;52.008;4.708;2022-08-11T14:51:48;2.25;;;1.80;;
19830;SDS011;10076;52.008;4.708;2022-08-11T14:54:18;2.22;;;2.00;;
19830;SDS011;10076;52.008;4.708;2022-08-11T14:57:08;2.60;;;2.20;;
19830;SDS011;10076;52.008;4.708;2022-08-11T14:59:33;3.72;;;1.90;;
19830;SDS011;10076;52.008;4.708;2022-08-11T15:02:01;1.90;;;1.80;;
19830;SDS011;10076;52.008;4.708;2022-08-11T15:04:47;5.50;;;1.90;;
19830;SDS011;10076;52.008;4.708;2022-08-11T15:07:13;3.05;;;2.15;;
19830;SDS011;10076;52.008;4.708;2022-08-11T15:09:40;2.28;;;1.80;;
19830;SDS011;10076;52.008;4.708;2022-08-11T15:12:08;2.30;;;2.10;;
19830;SDS011;10076;52.008;4.708;2022-08-11T15:14:40;1.88;;;1.70;;
19830;SDS011;10076;52.008;4.708;2022-08-11T15:17:25;2.08;;;1.83;;
19830;SDS011;10076;52.008;4.708;2022-08-11T15:19:52;2.65;;;1.75;;
19830;SDS011;10076;52.008;4.708;2022-08-11T15:22:37;1.75;;;1.60;;
19830;SDS011;10076;52.008;4.708;2022-08-11T15:25:21;2.30;;;1.58;;
19830;SDS011;10076;52.008;4.708;2022-08-11T15:27:47;1.50;;;1.40;;
19830;SDS011;10076;52.008;4.708;2022-08-11T15:30:34;3.65;;;1.60;;
19830;SDS011;10076;52.008;4.708;2022-08-11T15:33:20;2.05;;;1.65;;
19830;SDS011;10076;52.008;4.708;2022-08-11T15:36:06;2.03;;;1.85;;
19830;SDS011;10076;52.008;4.708;2022-08-11T15:39:34;2.05;;;1.77;;
19830;SDS011;10076;52.008;4.708;2022-08-11T15:41:48;1.60;;;1.50;;
19830;SDS011;10076;52.008;4.708;2022-08-11T15:44:46;2.90;;;1.80;;
19830;SDS011;10076;52.008;4.708;2022-08-11T15:47:37;1.90;;;1.80;;
19830;SDS011;10076;52.008;4.708;2022-08-11T15:50:12;3.45;;;1.70;;
19830;SDS011;10076;52.008;4.708;2022-08-11T15:52:45;2.08;;;1.50;;
19830;SDS011;10076;52.008;4.708;2022-08-11T15:55:16;2.15;;;1.50;;
19830;SDS011;10076;52.008;4.708;2022-08-11T15:57:44;1.67;;;1.40;;
19830;SDS011;10076;52.008;4.708;2022-08-11T16:00:31;2.72;;;1.40;;
19830;SDS011;10076;52.008;4.708;2022-08-11T16:03:16;4.47;;;1.75;;
19830;SDS011;10076;52.008;4.708;2022-08-11T16:06:02;1.60;;;1.40;;
19830;SDS011;10076;52.008;4.708;2022-08-11T16:08:29;1.73;;;1.63;;
19830;SDS011;10076;52.008;4.708;2022-08-11T16:10:56;1.75;;;1.38;;
19830;SDS011;10076;52.008;4.708;2022-08-11T16:13:23;2.35;;;1.45;;
19830;SDS011;10076;52.008;4.708;2022-08-11T16:15:51;2.38;;;1.30;;
19830;SDS011;10076;52.008;4.708;2022-08-11T16:18:40;3.08;;;1.33;;
19830;SDS011;10076;52.008;4.708;2022-08-11T16:21:16;2.03;;;1.50;;
19830;SDS011;10076;52.008;4.708;2022-08-11T16:23:44;2.58;;;2.00;;
19830;SDS011;10076;52.008;4.708;2022-08-11T16:26:13;3.35;;;1.70;;
19830;SDS011;10076;52.008;4.708;2022-08-11T16:28:42;2.45;;;1.65;;
19830;SDS011;10076;52.008;4.708;2022-08-11T16:31:08;3.17;;;1.52;;
19830;SDS011;10076;52.008;4.708;2022-08-11T16:33:39;1.55;;;1.45;;
19830;SDS011;10076;52.008;4.708;2022-08-11T16:36:06;2.30;;;1.77;;
19830;SDS011;10076;52.008;4.708;2022-08-11T16:38:51;5.78;;;2.00;;
19830;SDS011;10076;52.008;4.708;2022-08-11T16:41:18;3.45;;;2.03;;
19830;SDS011;10076;52.008;4.708;2022-08-11T16:44:05;2.05;;;1.67;;
19830;SDS011;10076;52.008;4.708;2022-08-11T16:46:50;3.00;;;1.75;;
19830;SDS011;10076;52.008;4.708;2022-08-11T16:49:29;2.08;;;1.88;;
19830;SDS011;10076;52.008;4.708;2022-08-11T16:51:56;2.00;;;1.80;;
19830;SDS011;10076;52.008;4.708;2022-08-11T16:54:22;2.53;;;1.77;;
19830;SDS011;10076;52.008;4.708;2022-08-11T16:56:49;4.25;;;1.63;;
19830;SDS011;10076;52.008;4.708;2022-08-11T16:59:16;3.90;;;1.85;;
19830;SDS011;10076;52.008;4.708;2022-08-11T17:01:53;1.58;;;1.45;;
19830;SDS011;10076;52.008;4.708;2022-08-11T17:04:38;3.25;;;1.80;;
19830;SDS011;10076;52.008;4.708;2022-08-11T17:07:28;3.42;;;2.30;;
19830;SDS011;10076;52.008;4.708;2022-08-11T17:10:18;2.95;;;1.60;;
19830;SDS011;10076;52.008;4.708;2022-08-11T17:13:07;2.17;;;1.73;;
19830;SDS011;10076;52.008;4.708;2022-08-11T17:15:47;2.05;;;1.50;;
19830;SDS011;10076;52.008;4.708;2022-08-11T17:18:30;1.77;;;1.60;;
19830;SDS011;10076;52.008;4.708;2022-08-11T17:21:07;3.40;;;1.90;;
19830;SDS011;10076;52.008;4.708;2022-08-11T17:23:37;2.08;;;1.50;;
19830;SDS011;10076;52.008;4.708;2022-08-11T17:26:11;2.50;;;1.42;;
19830;SDS011;10076;52.008;4.708;2022-08-11T17:28:39;2.22;;;1.48;;
19830;SDS011;10076;52.008;4.708;2022-08-11T17:31:06;3.65;;;1.80;;
19830;SDS011;10076;52.008;4.708;2022-08-11T17:33:51;2.78;;;1.55;;
19830;SDS011;10076;52.008;4.708;2022-08-11T17:36:37;4.07;;;1.73;;
19830;SDS011;10076;52.008;4.708;2022-08-11T17:39:04;2.30;;;1.70;;
19830;SDS011;10076;52.008;4.708;2022-08-11T17:41:32;2.17;;;1.98;;
19830;SDS011;10076;52.008;4.708;2022-08-11T17:44:17;1.58;;;1.42;;
19830;SDS011;10076;52.008;4.708;2022-08-11T17:47:01;3.88;;;1.90;;
19830;SDS011;10076;52.008;4.708;2022-08-11T17:49:44;2.13;;;1.80;;
19830;SDS011;10076;52.008;4.708;2022-08-11T17:52:10;2.25;;;1.50;;
19830;SDS011;10076;52.008;4.708;2022-08-11T17:54:55;1.50;;;1.40;;
19830;SDS011;10076;52.008;4.708;2022-08-11T17:57:40;1.80;;;1.60;;
19830;SDS011;10076;52.008;4.708;2022-08-11T18:00:26;1.50;;;1.40;;
19830;SDS011;10076;52.008;4.708;2022-08-11T18:02:52;1.92;;;1.45;;
19830;SDS011;10076;52.008;4.708;2022-08-11T18:05:38;2.72;;;1.60;;
19830;SDS011;10076;52.008;4.708;2022-08-11T18:08:08;2.00;;;1.55;;
19830;SDS011;10076;52.008;4.708;2022-08-11T18:10:54;1.75;;;1.42;;
19830;SDS011;10076;52.008;4.708;2022-08-11T18:13:39;2.05;;;1.40;;
19830;SDS011;10076;52.008;4.708;2022-08-11T18:16:25;2.13;;;1.75;;
19830;SDS011;10076;52.008;4.708;2022-08-11T18:19:10;1.58;;;1.45;;
19830;SDS011;10076;52.008;4.708;2022-08-11T18:21:56;1.88;;;1.58;;
19830;SDS011;10076;52.008;4.708;2022-08-11T18:24:49;3.45;;;1.75;;
19830;SDS011;10076;52.008;4.708;2022-08-11T18:27:36;2.05;;;1.52;;
19830;SDS011;10076;52.008;4.708;2022-08-11T18:30:23;1.67;;;1.55;;
19830;SDS011;10076;52.008;4.708;2022-08-11T18:33:07;1.80;;;1.38;;
19830;SDS011;10076;52.008;4.708;2022-08-11T18:35:53;2.65;;;1.73;;
19830;SDS011;10076;52.008;4.708;2022-08-11T18:38:42;2.13;;;1.80;;
19830;SDS011;10076;52.008;4.708;2022-08-11T18:41:28;1.60;;;1.50;;
19830;SDS011;10076;52.008;4.708;2022-08-11T18:44:18;1.95;;;1.73;;
19830;SDS011;10076;52.008;4.708;2022-08-11T18:47:07;1.98;;;1.70;;
19830;SDS011;10076;52.008;4.708;2022-08-11T18:49:53;1.55;;;1.42;;
19830;SDS011;10076;52.008;4.708;2022-08-11T18:52:39;2.13;;;1.65;;
19830;SDS011;10076;52.008;4.708;2022-08-11T18:55:25;2.20;;;1.67;;